Peru, Vermont
Current Conditions -  °F | °C
As of 8:54 AM on Tuesday 21 Oct 2014 (Local Time) from KVSF Reporting Station
Haze Haze  
Wind Chill: 45°   Ceiling: 7000
Heat Index: 45°   Visibility: 5mi
Dew Point: 43°   Wind: 0mph
Humidity: 93%   Direction: NA
Pressure: 29.99"   Gusts: NA
Location:  43.23°N, 72.9°W
Report Text: KVSF 211254Z AUTO 00000KT 5SM BR FEW003 OVC070 07/06 A2999 RMK AO2 SLP160 T00720061
Loading
Personal Weather Stations






























Interactive Weather Map
Tropical Storm Tracking
New forecast layout! Learn more

10-Day Weather Forecast

Advertisements
Track Severe Weather on mobile